createdAt,value
2023-01-29T00:00:08.662Z,99.01
2023-01-29T00:01:08.646Z,99.05
2023-01-29T00:02:08.640Z,98.80
2023-01-29T00:03:08.611Z,99.33
2023-01-29T00:04:08.602Z,99.28
2023-01-29T00:05:26.019Z,99.39
2023-01-29T00:06:10.531Z,99.18
2023-01-29T00:07:08.514Z,98.69
2023-01-29T00:08:08.491Z,98.65
2023-01-29T00:09:08.497Z,98.75
2023-01-29T00:10:08.450Z,98.97
2023-01-29T00:11:08.449Z,98.82
2023-01-29T00:12:08.408Z,98.23
2023-01-29T00:13:08.387Z,98.23
2023-01-29T00:14:08.423Z,98.55
2023-01-29T00:15:08.348Z,98.13
2023-01-29T00:16:08.365Z,97.71
2023-01-29T00:17:08.320Z,97.81
2023-01-29T00:18:08.285Z,98.13
2023-01-29T00:19:08.289Z,97.71
2023-01-29T00:20:08.241Z,97.81
2023-01-29T00:21:08.222Z,97.28
2023-01-29T00:22:08.208Z,97.49
2023-01-29T00:23:08.182Z,97.39
2023-01-29T00:24:08.223Z,97.49
2023-01-29T00:25:08.158Z,97.49
2023-01-29T00:26:08.115Z,97.60
2023-01-29T00:27:08.097Z,97.53
2023-01-29T00:28:08.074Z,97.28
2023-01-29T00:29:08.071Z,97.71
2023-01-29T00:30:09.058Z,97.60
2023-01-29T00:31:08.137Z,97.81
2023-01-29T00:32:08.086Z,97.76
2023-01-29T00:33:07.974Z,97.60
2023-01-29T00:34:07.976Z,97.60
2023-01-29T00:35:07.928Z,97.45
2023-01-29T00:36:07.908Z,97.24
2023-01-29T00:37:07.889Z,96.71
2023-01-29T00:38:07.874Z,96.81
2023-01-29T00:39:07.883Z,97.03
2023-01-29T00:40:07.842Z,96.71
2023-01-29T00:41:07.837Z,96.75
2023-01-29T00:42:07.789Z,96.86
2023-01-29T00:43:07.769Z,97.28
2023-01-29T00:44:07.776Z,97.28
2023-01-29T00:45:07.731Z,97.28
2023-01-29T00:46:07.717Z,97.45
2023-01-29T00:47:07.689Z,97.34
2023-01-29T00:48:07.668Z,97.55
2023-01-29T00:49:07.683Z,97.76
2023-01-29T00:50:07.632Z,97.30
2023-01-29T00:51:07.612Z,97.13
2023-01-29T00:52:07.592Z,96.81
2023-01-29T00:53:07.573Z,96.81
2023-01-29T00:54:07.587Z,96.75
2023-01-29T00:55:07.530Z,97.17
2023-01-29T00:56:07.512Z,97.55
2023-01-29T00:57:07.493Z,97.55
2023-01-29T00:58:07.469Z,97.24
2023-01-29T00:59:07.475Z,97.13
2023-01-29T01:00:07.430Z,97.13
2023-01-29T01:01:07.479Z,97.41
2023-01-29T01:02:07.406Z,97.24
2023-01-29T01:03:07.368Z,96.77
2023-01-29T01:04:07.370Z,96.98
2023-01-29T01:05:07.329Z,96.73
2023-01-29T01:06:07.301Z,97.09
2023-01-29T01:07:07.280Z,96.10
2023-01-29T01:08:07.259Z,96.35
2023-01-29T01:09:07.266Z,96.14
2023-01-29T01:10:07.217Z,96.03
2023-01-29T01:11:07.197Z,95.57
2023-01-29T01:12:07.203Z,95.40
2023-01-29T01:13:07.169Z,96.14
2023-01-29T01:14:07.169Z,95.72
2023-01-29T01:15:07.120Z,96.25
2023-01-29T01:16:07.117Z,96.14
2023-01-29T01:17:07.073Z,96.14
2023-01-29T01:18:07.050Z,95.62
2023-01-29T01:19:07.058Z,95.51
2023-01-29T01:20:07.011Z,95.93
2023-01-29T01:21:06.992Z,95.51
2023-01-29T01:22:06.973Z,95.51
2023-01-29T01:23:06.951Z,95.51
2023-01-29T01:24:06.987Z,95.20
2023-01-29T01:25:06.913Z,95.30
2023-01-29T01:26:06.889Z,96.25
2023-01-29T01:27:06.872Z,96.14
2023-01-29T01:28:06.849Z,96.03
2023-01-29T01:29:06.863Z,96.77
2023-01-29T01:30:06.808Z,96.67
2023-01-29T01:31:06.907Z,96.88
2023-01-29T01:32:06.767Z,97.15
2023-01-29T01:33:06.750Z,96.45
2023-01-29T01:34:06.824Z,97.09
2023-01-29T01:35:06.738Z,96.77
2023-01-29T01:36:06.690Z,97.09
2023-01-29T01:37:06.668Z,97.19
2023-01-29T01:38:06.650Z,96.83
2023-01-29T01:39:06.628Z,96.83
2023-01-29T01:40:06.631Z,97.05
2023-01-29T01:41:06.587Z,96.58
2023-01-29T01:42:06.563Z,96.89
2023-01-29T01:43:06.539Z,96.58
2023-01-29T01:44:07.538Z,96.37
2023-01-29T01:45:06.534Z,96.64
2023-01-29T01:46:06.515Z,96.53
2023-01-29T01:47:06.471Z,96.75
2023-01-29T01:48:06.446Z,96.64
2023-01-29T01:49:06.422Z,96.75
2023-01-29T01:50:06.427Z,96.53
2023-01-29T01:51:06.385Z,96.53
2023-01-29T01:52:06.364Z,96.53
2023-01-29T01:53:06.341Z,96.64
2023-01-29T01:54:06.324Z,96.59
2023-01-29T01:55:06.326Z,96.91
2023-01-29T01:56:06.281Z,96.59
2023-01-29T01:57:06.265Z,97.23
2023-01-29T01:58:06.240Z,95.76
2023-01-29T01:59:06.222Z,95.13
2023-01-29T02:00:06.225Z,95.80
2023-01-29T02:01:06.238Z,94.43
2023-01-29T02:02:06.175Z,94.43
2023-01-29T02:03:06.139Z,94.23
2023-01-29T02:04:06.120Z,93.95
2023-01-29T02:05:06.131Z,93.59
2023-01-29T02:06:06.089Z,93.95
2023-01-29T02:07:06.068Z,94.06
2023-01-29T02:08:06.041Z,93.95
2023-01-29T02:09:06.023Z,93.57
2023-01-29T02:10:06.023Z,93.53
2023-01-29T02:11:05.983Z,93.57
2023-01-29T02:12:05.961Z,93.47
2023-01-29T02:13:05.944Z,93.89
2023-01-29T02:14:05.934Z,93.99
2023-01-29T02:15:05.933Z,93.79
2023-01-29T02:16:05.887Z,94.10
2023-01-29T02:17:05.911Z,94.56
2023-01-29T02:18:05.858Z,94.56
2023-01-29T02:19:05.831Z,94.25
2023-01-29T02:20:05.839Z,94.04
2023-01-29T02:21:05.793Z,94.56
2023-01-29T02:22:05.799Z,94.42
2023-01-29T02:23:05.748Z,94.42
2023-01-29T02:24:05.799Z,94.62
2023-01-29T02:25:05.733Z,94.84
2023-01-29T02:26:05.690Z,95.83
2023-01-29T02:27:05.699Z,95.78
2023-01-29T02:28:05.663Z,95.36
2023-01-29T02:29:05.632Z,95.47
2023-01-29T02:30:05.633Z,95.47
2023-01-29T02:31:05.622Z,95.51
2023-01-29T02:32:05.611Z,95.20
2023-01-29T02:33:05.548Z,95.62
2023-01-29T02:34:05.530Z,95.20
2023-01-29T02:35:05.536Z,95.83
2023-01-29T02:36:05.493Z,95.83
2023-01-29T02:37:05.473Z,95.68
2023-01-29T02:38:05.450Z,95.62
2023-01-29T02:39:05.429Z,95.72
2023-01-29T02:40:05.434Z,95.20
2023-01-29T02:41:05.398Z,95.57
2023-01-29T02:42:05.363Z,96.20
2023-01-29T02:43:05.351Z,95.89
2023-01-29T02:44:05.327Z,95.72
2023-01-29T02:45:05.342Z,95.47
2023-01-29T02:46:05.316Z,95.30
2023-01-29T02:47:05.275Z,95.26
2023-01-29T02:48:05.250Z,94.98
2023-01-29T02:49:05.225Z,94.98
2023-01-29T02:50:05.234Z,95.30
2023-01-29T02:51:05.193Z,95.62
2023-01-29T02:52:05.162Z,96.03
2023-01-29T02:53:05.148Z,96.45
2023-01-29T02:54:05.121Z,96.03
2023-01-29T02:55:05.125Z,97.19
2023-01-29T02:56:05.080Z,96.56
2023-01-29T02:57:05.064Z,97.13
2023-01-29T02:58:05.042Z,96.55
2023-01-29T02:59:05.016Z,97.13
2023-01-29T03:00:06.026Z,97.13
2023-01-29T03:01:05.117Z,96.50
2023-01-29T03:02:04.986Z,97.39
2023-01-29T03:03:04.935Z,97.71
2023-01-29T03:04:04.925Z,97.34
2023-01-29T03:05:04.921Z,97.49
2023-01-29T03:06:04.882Z,97.07
2023-01-29T03:07:04.853Z,96.65
2023-01-29T03:08:04.829Z,97.60
2023-01-29T03:09:04.823Z,97.81
2023-01-29T03:10:04.824Z,98.07
2023-01-29T03:11:04.777Z,99.11
2023-01-29T03:12:04.751Z,99.11
2023-01-29T03:13:04.726Z,98.91
2023-01-29T03:14:04.712Z,99.64
2023-01-29T03:15:04.709Z,99.33
2023-01-29T03:16:04.672Z,98.91
2023-01-29T03:17:04.647Z,98.49
2023-01-29T03:18:04.625Z,98.85
2023-01-29T03:19:04.605Z,98.91
2023-01-29T03:20:04.613Z,98.95
2023-01-29T03:21:04.566Z,98.80
2023-01-29T03:22:04.564Z,99.11
2023-01-29T03:23:04.527Z,98.17
2023-01-29T03:24:04.561Z,97.75
2023-01-29T03:25:04.539Z,97.75
2023-01-29T03:26:04.466Z,97.53
2023-01-29T03:27:04.443Z,98.32
2023-01-29T03:28:04.429Z,99.05
2023-01-29T03:29:04.399Z,99.48
2023-01-29T03:30:04.408Z,99.27
2023-01-29T03:31:04.407Z,99.58
2023-01-29T03:32:04.363Z,99.58
2023-01-29T03:33:04.312Z,99.63
2023-01-29T03:34:04.294Z,99.99
2023-01-29T03:35:04.312Z,99.99
2023-01-29T03:36:04.257Z,99.99
2023-01-29T03:37:04.229Z,99.99
2023-01-29T03:38:04.208Z,99.58
2023-01-29T03:39:04.186Z,99.84
2023-01-29T03:40:04.199Z,99.73
2023-01-29T03:41:04.147Z,99.69
2023-01-29T03:42:04.125Z,99.63
2023-01-29T03:43:04.105Z,99.69
2023-01-29T03:44:04.084Z,99.90
2023-01-29T03:45:04.084Z,99.63
2023-01-29T03:46:04.097Z,99.16
2023-01-29T03:47:04.020Z,99.16
2023-01-29T03:48:03.998Z,99.48
2023-01-29T03:49:03.983Z,99.31
2023-01-29T03:50:03.984Z,99.69
2023-01-29T03:51:03.939Z,99.99
2023-01-29T03:52:03.915Z,99.99
2023-01-29T03:53:03.896Z,99.99
2023-01-29T03:54:03.880Z,99.99
2023-01-29T03:55:03.891Z,99.99
2023-01-29T03:56:03.839Z,99.99
2023-01-29T03:57:03.818Z,99.99
2023-01-29T03:58:03.799Z,99.99
2023-01-29T03:59:03.778Z,99.99
2023-01-29T04:00:03.784Z,99.99
2023-01-29T04:01:03.738Z,99.99
2023-01-29T04:02:03.713Z,99.99
2023-01-29T04:03:03.698Z,99.99
2023-01-29T04:04:03.732Z,99.99
2023-01-29T04:05:03.678Z,99.99
2023-01-29T04:06:03.631Z,99.99
2023-01-29T04:07:03.608Z,99.99
2023-01-29T04:08:03.622Z,99.99
2023-01-29T04:09:03.572Z,99.99
2023-01-29T04:10:03.577Z,99.99
2023-01-29T04:11:03.533Z,99.99
2023-01-29T04:12:03.506Z,99.99
2023-01-29T04:13:03.485Z,99.99
2023-01-29T04:14:03.470Z,99.99
2023-01-29T04:15:03.478Z,99.99
2023-01-29T04:16:03.474Z,99.99
2023-01-29T04:17:03.404Z,99.99
2023-01-29T04:18:03.383Z,99.99
2023-01-29T04:19:03.362Z,99.99
2023-01-29T04:20:03.370Z,99.99
2023-01-29T04:21:03.321Z,99.99
2023-01-29T04:22:03.301Z,99.99
2023-01-29T04:23:03.279Z,99.99
2023-01-29T04:24:03.329Z,99.99
2023-01-29T04:25:03.266Z,99.99
2023-01-29T04:26:03.222Z,99.99
2023-01-29T04:27:03.198Z,99.99
2023-01-29T04:28:03.179Z,99.99
2023-01-29T04:29:03.162Z,99.99
2023-01-29T04:30:03.167Z,99.99
2023-01-29T04:31:03.205Z,99.99
2023-01-29T04:32:03.099Z,99.99
2023-01-29T04:33:03.095Z,99.99
2023-01-29T04:34:03.056Z,99.99
2023-01-29T04:35:03.060Z,99.99
2023-01-29T04:36:03.015Z,99.99
2023-01-29T04:37:03.000Z,99.99
2023-01-29T04:38:02.971Z,99.99
2023-01-29T04:39:02.949Z,99.99
2023-01-29T04:40:02.960Z,99.99
2023-01-29T04:41:02.906Z,99.99
2023-01-29T04:42:02.925Z,99.99
2023-01-29T04:43:02.866Z,99.99
2023-01-29T04:44:02.848Z,99.99
2023-01-29T04:45:02.825Z,99.99
2023-01-29T04:46:02.832Z,99.99
2023-01-29T04:47:02.878Z,99.99
2023-01-29T04:48:02.764Z,99.99
2023-01-29T04:49:02.750Z,99.99
2023-01-29T04:50:02.736Z,99.99
2023-01-29T04:51:02.709Z,99.99
2023-01-29T04:52:02.711Z,99.99
2023-01-29T04:53:02.666Z,99.99
2023-01-29T04:54:02.638Z,99.99
2023-01-29T04:55:02.616Z,99.99
2023-01-29T04:56:02.631Z,99.99
2023-01-29T04:57:02.581Z,99.99
2023-01-29T04:58:02.553Z,99.99
2023-01-29T04:59:02.549Z,99.99
2023-01-29T05:00:02.515Z,99.99
2023-01-29T05:01:02.522Z,99.99
2023-01-29T05:02:02.596Z,99.99
2023-01-29T05:03:02.503Z,99.99
2023-01-29T05:04:02.433Z,99.99
2023-01-29T05:05:02.408Z,99.99
2023-01-29T05:06:02.412Z,99.99
2023-01-29T05:07:02.374Z,99.99
2023-01-29T05:08:02.347Z,99.99
2023-01-29T05:09:03.296Z,99.99
2023-01-29T05:10:02.300Z,99.99
2023-01-29T05:11:02.309Z,99.99
2023-01-29T05:12:02.262Z,99.99
2023-01-29T05:13:02.244Z,99.99
2023-01-29T05:14:02.223Z,99.99
2023-01-29T05:15:02.196Z,99.99
2023-01-29T05:16:02.307Z,99.99
2023-01-29T05:17:02.163Z,99.99
2023-01-29T05:18:02.139Z,99.99
2023-01-29T05:19:02.117Z,99.99
2023-01-29T05:20:02.112Z,99.99
2023-01-29T05:21:02.094Z,99.99
2023-01-29T05:22:02.058Z,99.99
2023-01-29T05:23:02.032Z,99.99
2023-01-29T05:24:02.051Z,99.99
2023-01-29T05:25:02.028Z,99.99
2023-01-29T05:26:01.993Z,99.99
2023-01-29T05:27:01.962Z,99.99
2023-01-29T05:28:01.933Z,99.99
2023-01-29T05:29:01.903Z,99.99
2023-01-29T05:30:01.905Z,99.99
2023-01-29T05:31:01.995Z,99.99
2023-01-29T05:32:01.839Z,99.99
2023-01-29T05:33:01.816Z,99.99
2023-01-29T05:34:01.798Z,99.99
2023-01-29T05:35:01.777Z,99.99
2023-01-29T05:36:01.784Z,99.99
2023-01-29T05:37:01.731Z,99.99
2023-01-29T05:38:01.711Z,99.99
2023-01-29T05:39:01.689Z,99.99
2023-01-29T05:40:01.681Z,99.99
2023-01-29T05:41:01.675Z,99.99
2023-01-29T05:42:01.624Z,99.99
2023-01-29T05:43:01.615Z,99.99
2023-01-29T05:44:01.584Z,99.99
2023-01-29T05:45:01.616Z,99.99
2023-01-29T05:46:01.613Z,99.99
2023-01-29T05:47:01.568Z,99.99
2023-01-29T05:48:01.505Z,99.99
2023-01-29T05:49:01.483Z,99.99
2023-01-29T05:50:01.463Z,99.99
2023-01-29T05:51:01.471Z,99.99
2023-01-29T05:52:01.421Z,99.99
2023-01-29T05:53:01.408Z,99.99
2023-01-29T05:54:01.382Z,99.99
2023-01-29T05:55:01.360Z,99.99
2023-01-29T05:56:01.359Z,99.99
2023-01-29T05:57:01.326Z,99.99
2023-01-29T05:58:01.305Z,99.99
2023-01-29T05:59:01.275Z,99.99
2023-01-29T06:00:01.258Z,99.99
2023-01-29T06:01:01.255Z,99.99
2023-01-29T06:02:01.251Z,99.99
2023-01-29T06:03:01.204Z,99.99
2023-01-29T06:04:01.166Z,99.99
2023-01-29T06:05:01.145Z,99.99
2023-01-29T06:06:01.162Z,99.99
2023-01-29T06:07:01.111Z,99.99
2023-01-29T06:08:01.083Z,99.99
2023-01-29T06:09:01.075Z,99.99
2023-01-29T06:10:01.044Z,99.81
2023-01-29T06:11:01.053Z,99.99
2023-01-29T06:12:01.000Z,99.91
2023-01-29T06:13:00.984Z,99.99
2023-01-29T06:14:00.977Z,99.70
2023-01-29T06:15:00.943Z,99.33
2023-01-29T06:16:00.997Z,99.49
2023-01-29T06:17:00.900Z,98.97
2023-01-29T06:18:00.885Z,99.60
2023-01-29T06:19:00.853Z,98.65
2023-01-29T06:20:00.833Z,99.18
2023-01-29T06:21:00.836Z,99.28
2023-01-29T06:22:00.790Z,99.28
2023-01-29T06:23:00.776Z,99.49
2023-01-29T06:24:00.791Z,99.28
2023-01-29T06:25:00.716Z,99.49
2023-01-29T06:26:01.730Z,98.86
2023-01-29T06:27:00.685Z,98.55
2023-01-29T06:28:00.667Z,98.55
2023-01-29T06:29:00.644Z,98.65
2023-01-29T06:30:00.620Z,98.97
2023-01-29T06:31:11.370Z,99.07
2023-01-29T06:32:02.688Z,99.22
2023-01-29T06:33:00.564Z,99.54
2023-01-29T06:34:00.542Z,99.18
2023-01-29T06:35:00.527Z,99.18
2023-01-29T06:36:00.535Z,99.33
2023-01-29T06:37:00.480Z,99.49
2023-01-29T06:38:00.457Z,99.49
2023-01-29T06:39:00.496Z,99.64
2023-01-29T06:40:00.420Z,99.64
2023-01-29T06:41:00.401Z,99.11
2023-01-29T06:42:00.392Z,99.39
2023-01-29T06:43:00.359Z,99.75
2023-01-29T06:44:00.363Z,99.43
2023-01-29T06:45:00.331Z,99.54
2023-01-29T06:46:00.375Z,99.64
2023-01-29T06:47:00.280Z,99.75
2023-01-29T06:48:01.568Z,99.54
2023-01-29T06:49:01.250Z,99.33
2023-01-29T06:50:00.219Z,99.43
2023-01-29T06:51:00.276Z,98.86
2023-01-29T06:52:00.180Z,98.75
2023-01-29T06:53:00.159Z,98.65
2023-01-29T06:54:00.180Z,98.75
2023-01-29T06:55:00.114Z,98.75
2023-01-29T06:56:00.138Z,98.75
2023-01-29T06:57:00.086Z,98.23
2023-01-29T06:58:00.050Z,98.13
2023-01-29T06:59:00.029Z,98.23
2023-01-29T07:00:00.009Z,98.02
2023-01-29T07:01:00.065Z,97.39
2023-01-29T07:02:00.090Z,97.60
2023-01-29T07:02:59.948Z,97.81
2023-01-29T07:03:59.943Z,98.44
2023-01-29T07:04:59.900Z,99.07
2023-01-29T07:05:59.920Z,99.07
2023-01-29T07:06:59.880Z,98.55
2023-01-29T07:07:59.844Z,98.44
2023-01-29T07:08:59.838Z,98.02
2023-01-29T07:09:59.802Z,98.23
2023-01-29T07:10:59.809Z,98.23
2023-01-29T07:11:59.755Z,97.97
2023-01-29T07:12:59.739Z,97.76
2023-01-29T07:13:59.719Z,97.55
2023-01-29T07:14:59.698Z,97.34
2023-01-29T07:15:59.763Z,96.61
2023-01-29T07:16:59.655Z,97.03
2023-01-29T07:17:59.636Z,96.71
2023-01-29T07:18:59.619Z,95.97
2023-01-29T07:19:59.602Z,96.39
2023-01-29T07:20:59.608Z,96.19
2023-01-29T07:21:59.555Z,96.92
2023-01-29T07:22:59.536Z,96.71
2023-01-29T07:23:59.615Z,96.81
2023-01-29T07:24:59.502Z,96.71
2023-01-29T07:26:00.480Z,96.92
2023-01-29T07:26:59.460Z,96.71
2023-01-29T07:28:00.990Z,96.71
2023-01-29T07:29:00.447Z,96.81
2023-01-29T07:29:59.400Z,96.81
2023-01-29T07:30:59.472Z,96.71
2023-01-29T07:31:59.479Z,97.03
2023-01-29T07:32:59.344Z,96.81
2023-01-29T07:33:59.347Z,96.88
2023-01-29T07:34:59.307Z,96.92
2023-01-29T07:35:59.308Z,96.67
2023-01-29T07:36:59.269Z,96.45
2023-01-29T07:37:59.257Z,97.19
2023-01-29T07:38:59.224Z,96.25
2023-01-29T07:39:59.207Z,95.72
2023-01-29T07:40:59.185Z,96.35
2023-01-29T07:41:59.194Z,95.51
2023-01-29T07:42:59.157Z,95.72
2023-01-29T07:43:59.130Z,95.30
2023-01-29T07:44:59.109Z,95.62
2023-01-29T07:45:59.122Z,95.40
2023-01-29T07:46:59.085Z,95.89
2023-01-29T07:47:59.052Z,95.30
2023-01-29T07:48:59.028Z,95.51
2023-01-29T07:49:59.005Z,95.36
2023-01-29T07:50:59.047Z,95.51
2023-01-29T07:51:58.993Z,95.36
2023-01-29T07:52:58.949Z,95.68
2023-01-29T07:53:58.952Z,94.88
2023-01-29T07:54:58.907Z,94.52
2023-01-29T07:55:58.898Z,94.56
2023-01-29T07:56:58.896Z,94.35
2023-01-29T07:57:58.844Z,94.35
2023-01-29T07:58:58.835Z,94.14
2023-01-29T07:59:58.803Z,94.25
2023-01-29T08:00:58.797Z,94.25
2023-01-29T08:01:58.826Z,94.14
2023-01-29T08:02:58.737Z,94.25
2023-01-29T08:03:58.731Z,94.10
2023-01-29T08:04:58.702Z,94.25
2023-01-29T08:05:58.684Z,94.46
2023-01-29T08:06:58.682Z,95.09
2023-01-29T08:08:06.433Z,95.09
2023-01-29T08:09:00.615Z,94.35
2023-01-29T08:09:58.591Z,94.46
2023-01-29T08:10:58.572Z,94.56
2023-01-29T08:11:58.577Z,94.40
2023-01-29T08:12:58.534Z,95.72
2023-01-29T08:13:58.512Z,95.09
2023-01-29T08:14:58.495Z,94.98
2023-01-29T08:15:58.485Z,95.20
2023-01-29T08:16:58.480Z,95.30
2023-01-29T08:17:58.679Z,94.98
2023-01-29T08:18:58.418Z,95.20
2023-01-29T08:19:58.388Z,95.30
2023-01-29T08:20:58.369Z,95.20
2023-01-29T08:21:58.373Z,95.09
2023-01-29T08:22:58.324Z,95.40
2023-01-29T08:23:58.323Z,95.20
2023-01-29T08:25:06.359Z,95.40
2023-01-29T08:26:00.325Z,94.84
2023-01-29T08:26:58.265Z,95.78
2023-01-29T08:27:58.216Z,95.15
2023-01-29T08:28:58.196Z,95.62
2023-01-29T08:29:58.176Z,94.98
2023-01-29T08:30:58.169Z,95.47
2023-01-29T08:31:58.213Z,94.98
2023-01-29T08:32:58.132Z,95.26
2023-01-29T08:33:58.105Z,95.68
2023-01-29T08:34:58.076Z,94.42
2023-01-29T08:35:58.063Z,94.48
2023-01-29T08:36:58.065Z,94.17
2023-01-29T08:37:58.034Z,94.48
2023-01-29T08:38:58.007Z,94.27
2023-01-29T08:39:58.010Z,93.85
2023-01-29T08:40:57.958Z,93.59
2023-01-29T08:41:57.962Z,93.80
2023-01-29T08:42:59.587Z,93.91
2023-01-29T08:43:57.901Z,93.49
2023-01-29T08:44:57.877Z,93.80
2023-01-29T08:45:57.886Z,93.80
2023-01-29T08:46:57.863Z,93.49
2023-01-29T08:47:57.843Z,93.28
2023-01-29T08:48:57.798Z,92.82
2023-01-29T08:49:57.778Z,93.07
2023-01-29T08:50:57.763Z,92.71
2023-01-29T08:51:57.771Z,92.40
2023-01-29T08:52:57.715Z,92.14
2023-01-29T08:53:57.695Z,92.04
2023-01-29T08:54:57.673Z,91.83
2023-01-29T08:55:57.656Z,91.89
2023-01-29T08:56:57.660Z,90.67
2023-01-29T08:57:57.621Z,91.12
2023-01-29T08:58:58.408Z,90.22
2023-01-29T08:59:57.578Z,90.38
2023-01-29T09:00:57.683Z,90.42
2023-01-29T09:01:57.575Z,90.28
2023-01-29T09:02:57.516Z,90.49
2023-01-29T09:03:57.500Z,90.22
2023-01-29T09:04:57.482Z,90.59
2023-01-29T09:05:57.455Z,91.12
2023-01-29T09:06:57.466Z,90.59
2023-01-29T09:07:57.415Z,90.38
2023-01-29T09:08:57.399Z,89.97
2023-01-29T09:09:57.376Z,89.61
2023-01-29T09:10:57.361Z,89.75
2023-01-29T09:11:57.362Z,90.34
2023-01-29T09:12:57.320Z,89.72
2023-01-29T09:13:57.304Z,89.57
2023-01-29T09:14:57.282Z,89.47
2023-01-29T09:15:57.985Z,89.22
2023-01-29T09:16:57.366Z,89.22
2023-01-29T09:17:57.222Z,88.17
2023-01-29T09:18:57.204Z,88.48
2023-01-29T09:19:57.207Z,87.96
2023-01-29T09:20:57.171Z,87.92
2023-01-29T09:21:57.145Z,87.29
2023-01-29T09:22:57.128Z,87.18
2023-01-29T09:23:57.118Z,87.08
2023-01-29T09:24:57.113Z,87.15
2023-01-29T09:25:57.067Z,86.93
2023-01-29T09:26:57.066Z,86.62
2023-01-29T09:27:58.031Z,85.99
2023-01-29T09:28:57.017Z,86.37
2023-01-29T09:29:57.001Z,85.91
2023-01-29T09:30:57.041Z,85.81
2023-01-29T09:31:57.091Z,85.56
2023-01-29T09:32:56.940Z,85.14
2023-01-29T09:33:56.925Z,85.77
2023-01-29T09:34:56.904Z,84.62
2023-01-29T09:35:56.890Z,84.20
2023-01-29T09:36:56.907Z,85.18
2023-01-29T09:37:56.855Z,85.14
2023-01-29T09:38:56.831Z,85.08
2023-01-29T09:39:56.811Z,85.04
2023-01-29T09:40:56.809Z,84.45
2023-01-29T09:41:56.816Z,85.56
2023-01-29T09:42:56.759Z,85.71
2023-01-29T09:43:56.744Z,85.25
2023-01-29T09:44:56.719Z,85.39
2023-01-29T09:45:56.730Z,85.14
2023-01-29T09:46:56.708Z,85.67
2023-01-29T09:47:56.663Z,85.67
2023-01-29T09:48:56.645Z,85.46
2023-01-29T09:49:56.636Z,85.56
2023-01-29T09:50:56.637Z,84.97
2023-01-29T09:51:56.621Z,85.39
2023-01-29T09:52:56.575Z,85.81
2023-01-29T09:53:57.519Z,85.71
2023-01-29T09:54:56.543Z,84.97
2023-01-29T09:55:56.522Z,85.91
2023-01-29T09:56:56.531Z,86.44
2023-01-29T09:57:57.018Z,86.54
2023-01-29T09:58:56.467Z,86.02
2023-01-29T09:59:56.443Z,84.94
2023-01-29T10:00:56.447Z,85.18
2023-01-29T10:01:56.681Z,85.08
2023-01-29T10:02:56.393Z,85.39
2023-01-29T10:03:56.391Z,85.60
2023-01-29T10:04:56.359Z,84.87
2023-01-29T10:05:56.360Z,85.60
2023-01-29T10:06:56.344Z,85.81
2023-01-29T10:07:56.297Z,84.87
2023-01-29T10:08:56.276Z,85.18
2023-01-29T10:09:56.265Z,84.94
2023-01-29T10:10:56.237Z,84.97
2023-01-29T10:11:58.080Z,84.41
2023-01-29T10:12:57.205Z,84.34
2023-01-29T10:13:56.183Z,85.18
2023-01-29T10:14:56.162Z,85.81
2023-01-29T10:15:56.145Z,85.18
2023-01-29T10:16:56.208Z,85.77
2023-01-29T10:17:56.112Z,85.25
2023-01-29T10:18:56.091Z,85.04
2023-01-29T10:19:56.077Z,84.62
2023-01-29T10:20:56.057Z,84.79
2023-01-29T10:21:56.060Z,83.85
2023-01-29T10:22:56.023Z,83.68
2023-01-29T10:23:56.001Z,84.20
2023-01-29T10:24:55.981Z,84.52
2023-01-29T10:25:55.971Z,84.41
2023-01-29T10:26:55.968Z,84.69
2023-01-29T10:27:55.927Z,84.69
2023-01-29T10:28:55.906Z,84.06
2023-01-29T10:29:55.888Z,83.75
2023-01-29T10:30:55.935Z,83.64
2023-01-29T10:31:55.943Z,83.75
2023-01-29T10:32:55.846Z,83.40
2023-01-29T10:34:03.184Z,82.98
2023-01-29T10:34:57.811Z,82.42
2023-01-29T10:35:56.713Z,82.25
2023-01-29T10:36:55.791Z,82.31
2023-01-29T10:37:55.751Z,82.42
2023-01-29T10:38:55.737Z,83.04
2023-01-29T10:39:55.715Z,83.01
2023-01-29T10:40:55.696Z,82.80
2023-01-29T10:41:55.722Z,82.07
2023-01-29T10:42:55.656Z,81.34
2023-01-29T10:43:55.638Z,80.61
2023-01-29T10:44:55.621Z,81.13
2023-01-29T10:45:55.603Z,81.02
2023-01-29T10:46:55.611Z,81.65
2023-01-29T10:47:55.568Z,81.02
2023-01-29T10:48:55.546Z,81.23
2023-01-29T10:49:55.527Z,81.13
2023-01-29T10:50:55.510Z,81.23
2023-01-29T10:51:55.504Z,81.51
2023-01-29T10:52:57.221Z,81.62
2023-01-29T10:53:55.462Z,80.99
2023-01-29T10:54:55.442Z,79.80
2023-01-29T10:55:55.425Z,80.51
2023-01-29T10:56:55.404Z,81.34
2023-01-29T10:57:55.407Z,81.65
2023-01-29T10:58:55.369Z,81.86
2023-01-29T10:59:55.348Z,81.86
2023-01-29T11:00:55.330Z,82.31
2023-01-29T11:01:55.378Z,82.67
2023-01-29T11:02:55.427Z,82.67
2023-01-29T11:03:55.273Z,82.56
2023-01-29T11:04:55.260Z,82.31
2023-01-29T11:05:55.245Z,82.04
2023-01-29T11:06:55.220Z,82.67
2023-01-29T11:07:55.225Z,82.87
2023-01-29T11:08:55.185Z,83.95
2023-01-29T11:09:55.163Z,85.21
2023-01-29T11:10:55.150Z,85.21
2023-01-29T11:11:55.122Z,84.44
2023-01-29T11:12:55.135Z,84.38
2023-01-29T11:13:55.094Z,83.44
2023-01-29T11:14:55.074Z,84.17
2023-01-29T11:15:55.050Z,84.73
2023-01-29T11:16:55.062Z,84.89
2023-01-29T11:17:55.041Z,85.11
2023-01-29T11:18:54.998Z,84.52
2023-01-29T11:19:54.983Z,85.31
2023-01-29T11:20:54.961Z,85.00
2023-01-29T11:21:54.942Z,84.83
2023-01-29T11:22:54.946Z,85.35
2023-01-29T11:23:54.902Z,85.46
2023-01-29T11:24:54.878Z,86.44
2023-01-29T11:25:54.864Z,86.33
2023-01-29T11:26:54.845Z,86.65
2023-01-29T11:27:54.852Z,87.31
2023-01-29T11:28:54.806Z,87.42
2023-01-29T11:29:54.789Z,87.27
2023-01-29T11:30:54.851Z,87.27
2023-01-29T11:31:54.793Z,87.17
2023-01-29T11:32:54.759Z,87.27
2023-01-29T11:33:54.713Z,87.27
2023-01-29T11:34:54.701Z,87.59
2023-01-29T11:35:54.683Z,85.98
2023-01-29T11:36:54.659Z,86.36
2023-01-29T11:37:54.668Z,85.52
2023-01-29T11:38:54.623Z,85.21
2023-01-29T11:39:54.606Z,86.40
2023-01-29T11:40:54.588Z,86.96
2023-01-29T11:41:54.577Z,87.23
2023-01-29T11:42:54.593Z,87.40
2023-01-29T11:43:54.534Z,87.40
2023-01-29T11:44:54.519Z,86.51
2023-01-29T11:45:54.498Z,86.82
2023-01-29T11:46:54.478Z,87.23
2023-01-29T11:47:54.492Z,87.45
2023-01-29T11:48:59.102Z,87.38
2023-01-29T11:49:55.432Z,87.34
2023-01-29T11:50:54.408Z,87.13
2023-01-29T11:51:54.392Z,87.02
2023-01-29T11:52:54.404Z,87.19
2023-01-29T11:53:54.361Z,86.36
2023-01-29T11:54:54.334Z,86.77
2023-01-29T11:55:54.316Z,85.83
2023-01-29T11:56:54.301Z,86.53
2023-01-29T11:57:54.321Z,86.15
2023-01-29T11:58:54.263Z,86.05
2023-01-29T11:59:54.246Z,86.67
2023-01-29T12:00:54.224Z,86.36
2023-01-29T12:01:54.216Z,86.46
2023-01-29T12:02:54.221Z,85.17
2023-01-29T12:03:54.202Z,85.27
2023-01-29T12:04:55.173Z,85.59
2023-01-29T12:05:54.186Z,85.44
2023-01-29T12:06:54.115Z,84.72
2023-01-29T12:07:54.128Z,85.03
2023-01-29T12:08:54.078Z,84.92
2023-01-29T12:09:54.063Z,84.92
2023-01-29T12:10:54.047Z,85.59
2023-01-29T12:11:54.019Z,85.97
2023-01-29T12:12:54.027Z,85.55
2023-01-29T12:13:53.980Z,85.03
2023-01-29T12:14:53.968Z,85.20
2023-01-29T12:15:54.895Z,85.30
2023-01-29T12:16:54.930Z,85.51
2023-01-29T12:17:53.940Z,84.30
2023-01-29T12:18:53.887Z,85.41
2023-01-29T12:19:53.877Z,85.30
2023-01-29T12:20:53.852Z,84.72
2023-01-29T12:21:53.844Z,86.28
2023-01-29T12:22:53.840Z,86.38
2023-01-29T12:23:53.796Z,85.65
2023-01-29T12:24:53.780Z,85.13
2023-01-29T12:25:53.762Z,85.20
2023-01-29T12:26:53.763Z,85.03
2023-01-29T12:27:53.759Z,85.20
2023-01-29T12:28:53.713Z,84.47
2023-01-29T12:29:53.690Z,84.01
2023-01-29T12:30:53.720Z,83.70
2023-01-29T12:31:53.650Z,83.91
2023-01-29T12:32:53.657Z,83.97
2023-01-29T12:33:53.754Z,83.07
2023-01-29T12:34:53.600Z,82.76
2023-01-29T12:35:53.577Z,83.53
2023-01-29T12:36:53.555Z,83.70
2023-01-29T12:37:53.565Z,84.22
2023-01-29T12:38:53.543Z,84.53
2023-01-29T12:39:53.496Z,84.33
2023-01-29T12:40:53.478Z,83.18
2023-01-29T12:41:53.468Z,84.05
2023-01-29T12:42:53.467Z,85.24
2023-01-29T12:43:53.425Z,85.30
2023-01-29T12:44:53.404Z,84.99
2023-01-29T12:45:53.386Z,84.78
2023-01-29T12:46:53.430Z,84.30
2023-01-29T12:47:53.385Z,86.11
2023-01-29T12:48:53.338Z,86.32
2023-01-29T12:49:53.314Z,86.15
2023-01-29T12:50:53.290Z,87.47
2023-01-29T12:51:53.276Z,87.22